sensor_id;sensor_type;location;lat;lon;timestamp;temperature;humidity
23671;DHT22;12012;51.998;7.614;2023-05-24T00:00:28;8.40;1.00
23671;DHT22;12012;51.998;7.614;2023-05-24T00:02:54;8.40;1.00
23671;DHT22;12012;51.998;7.614;2023-05-24T00:05:22;8.30;1.00
23671;DHT22;12012;51.998;7.614;2023-05-24T00:07:47;8.30;1.00
23671;DHT22;12012;51.998;7.614;2023-05-24T00:10:13;8.30;1.00
23671;DHT22;12012;51.998;7.614;2023-05-24T00:12:39;8.30;1.00
23671;DHT22;12012;51.998;7.614;2023-05-24T00:15:05;8.30;1.00
23671;DHT22;12012;51.998;7.614;2023-05-24T00:17:30;8.30;1.00
23671;DHT22;12012;51.998;7.614;2023-05-24T00:19:56;8.30;1.00
23671;DHT22;12012;51.998;7.614;2023-05-24T00:22:22;8.20;1.00
23671;DHT22;12012;51.998;7.614;2023-05-24T00:24:48;8.20;1.00
23671;DHT22;12012;51.998;7.614;2023-05-24T00:27:14;8.20;19.50
23671;DHT22;12012;51.998;7.614;2023-05-24T00:29:39;8.20;78.90
23671;DHT22;12012;51.998;7.614;2023-05-24T00:32:05;8.10;85.00
23671;DHT22;12012;51.998;7.614;2023-05-24T00:34:31;8.20;55.10
23671;DHT22;12012;51.998;7.614;2023-05-24T00:36:56;8.10;72.70
23671;DHT22;12012;51.998;7.614;2023-05-24T00:39:22;8.10;66.70
23671;DHT22;12012;51.998;7.614;2023-05-24T00:41:48;8.10;85.30
23671;DHT22;12012;51.998;7.614;2023-05-24T00:44:14;8.10;81.70
23671;DHT22;12012;51.998;7.614;2023-05-24T00:46:40;8.10;97.40
23671;DHT22;12012;51.998;7.614;2023-05-24T00:49:06;8.10;99.90
23671;DHT22;12012;51.998;7.614;2023-05-24T00:51:32;8.10;99.90
23671;DHT22;12012;51.998;7.614;2023-05-24T00:53:58;8.00;99.90
23671;DHT22;12012;51.998;7.614;2023-05-24T00:56:24;8.00;99.90
23671;DHT22;12012;51.998;7.614;2023-05-24T00:58:51;8.00;99.90
23671;DHT22;12012;51.998;7.614;2023-05-24T01:01:19;8.00;99.90
23671;DHT22;12012;51.998;7.614;2023-05-24T01:03:44;8.00;99.90
23671;DHT22;12012;51.998;7.614;2023-05-24T01:06:12;8.00;99.90
23671;DHT22;12012;51.998;7.614;2023-05-24T01:13:50;8.00;99.90
23671;DHT22;12012;51.998;7.614;2023-05-24T01:16:24;8.00;99.90
23671;DHT22;12012;51.998;7.614;2023-05-24T01:18:56;7.90;99.90
23671;DHT22;12012;51.998;7.614;2023-05-24T01:21:43;7.90;99.90
23671;DHT22;12012;51.998;7.614;2023-05-24T01:27:21;7.80;99.90
23671;DHT22;12012;51.998;7.614;2023-05-24T01:29:49;7.80;99.90
23671;DHT22;12012;51.998;7.614;2023-05-24T01:32:18;7.80;99.90
23671;DHT22;12012;51.998;7.614;2023-05-24T01:34:44;7.80;99.90
23671;DHT22;12012;51.998;7.614;2023-05-24T01:37:10;7.80;99.90
23671;DHT22;12012;51.998;7.614;2023-05-24T01:39:35;7.80;99.90
23671;DHT22;12012;51.998;7.614;2023-05-24T01:42:06;7.70;99.90
23671;DHT22;12012;51.998;7.614;2023-05-24T01:44:42;7.70;99.90
23671;DHT22;12012;51.998;7.614;2023-05-24T01:47:24;7.70;99.90
23671;DHT22;12012;51.998;7.614;2023-05-24T01:49:54;7.70;99.90
23671;DHT22;12012;51.998;7.614;2023-05-24T01:52:23;7.70;99.90
23671;DHT22;12012;51.998;7.614;2023-05-24T01:54:51;7.70;99.90
23671;DHT22;12012;51.998;7.614;2023-05-24T01:57:22;7.70;99.90
23671;DHT22;12012;51.998;7.614;2023-05-24T01:59:49;7.60;1.00
23671;DHT22;12012;51.998;7.614;2023-05-24T02:02:15;7.60;1.00
23671;DHT22;12012;51.998;7.614;2023-05-24T02:04:41;7.60;1.00
23671;DHT22;12012;51.998;7.614;2023-05-24T02:07:06;7.60;1.00
23671;DHT22;12012;51.998;7.614;2023-05-24T02:09:32;7.60;1.00
23671;DHT22;12012;51.998;7.614;2023-05-24T02:11:58;7.60;1.00
23671;DHT22;12012;51.998;7.614;2023-05-24T02:14:23;7.50;1.00
23671;DHT22;12012;51.998;7.614;2023-05-24T02:16:49;7.50;1.00
23671;DHT22;12012;51.998;7.614;2023-05-24T02:19:15;7.60;1.00
23671;DHT22;12012;51.998;7.614;2023-05-24T02:21:44;7.50;9.70
23671;DHT22;12012;51.998;7.614;2023-05-24T02:24:09;7.50;99.90
23671;DHT22;12012;51.998;7.614;2023-05-24T02:26:39;7.50;99.90
23671;DHT22;12012;51.998;7.614;2023-05-24T02:29:04;7.50;99.90
23671;DHT22;12012;51.998;7.614;2023-05-24T02:31:30;7.50;99.90
23671;DHT22;12012;51.998;7.614;2023-05-24T02:33:56;7.40;99.90
23671;DHT22;12012;51.998;7.614;2023-05-24T02:36:22;7.40;99.90
23671;DHT22;12012;51.998;7.614;2023-05-24T02:38:49;7.40;99.90
23671;DHT22;12012;51.998;7.614;2023-05-24T02:41:15;7.40;99.90
23671;DHT22;12012;51.998;7.614;2023-05-24T02:43:46;7.30;99.90
23671;DHT22;12012;51.998;7.614;2023-05-24T02:46:13;7.30;99.90
23671;DHT22;12012;51.998;7.614;2023-05-24T02:48:39;7.30;99.90
23671;DHT22;12012;51.998;7.614;2023-05-24T02:51:04;7.30;99.90
23671;DHT22;12012;51.998;7.614;2023-05-24T02:53:31;7.30;99.90
23671;DHT22;12012;51.998;7.614;2023-05-24T02:55:57;7.30;99.90
23671;DHT22;12012;51.998;7.614;2023-05-24T02:58:22;7.20;99.90
23671;DHT22;12012;51.998;7.614;2023-05-24T03:00:49;7.30;99.90
23671;DHT22;12012;51.998;7.614;2023-05-24T03:03:15;7.20;1.00
23671;DHT22;12012;51.998;7.614;2023-05-24T03:05:40;7.20;1.00
23671;DHT22;12012;51.998;7.614;2023-05-24T03:08:06;7.30;1.00
23671;DHT22;12012;51.998;7.614;2023-05-24T03:10:32;7.20;1.00
23671;DHT22;12012;51.998;7.614;2023-05-24T03:12:58;7.20;1.00
23671;DHT22;12012;51.998;7.614;2023-05-24T03:15:23;7.20;2.90
23671;DHT22;12012;51.998;7.614;2023-05-24T03:17:49;7.20;99.90
23671;DHT22;12012;51.998;7.614;2023-05-24T03:20:15;7.20;99.90
23671;DHT22;12012;51.998;7.614;2023-05-24T03:22:42;7.10;99.90
23671;DHT22;12012;51.998;7.614;2023-05-24T03:25:07;7.10;99.90
23671;DHT22;12012;51.998;7.614;2023-05-24T03:27:37;7.10;99.90
23671;DHT22;12012;51.998;7.614;2023-05-24T03:30:03;7.10;99.90
23671;DHT22;12012;51.998;7.614;2023-05-24T03:32:31;7.10;1.00
23671;DHT22;12012;51.998;7.614;2023-05-24T03:34:56;7.10;1.00
23671;DHT22;12012;51.998;7.614;2023-05-24T03:37:23;7.10;1.00
23671;DHT22;12012;51.998;7.614;2023-05-24T03:39:49;7.10;99.90
23671;DHT22;12012;51.998;7.614;2023-05-24T03:42:14;7.10;99.90
23671;DHT22;12012;51.998;7.614;2023-05-24T03:44:40;7.10;99.90
23671;DHT22;12012;51.998;7.614;2023-05-24T03:47:06;7.10;99.90
23671;DHT22;12012;51.998;7.614;2023-05-24T03:49:31;7.10;99.90
23671;DHT22;12012;51.998;7.614;2023-05-24T03:51:57;7.10;1.00
23671;DHT22;12012;51.998;7.614;2023-05-24T03:54:22;7.10;1.00
23671;DHT22;12012;51.998;7.614;2023-05-24T03:56:48;7.10;1.00
23671;DHT22;12012;51.998;7.614;2023-05-24T03:59:14;7.20;99.90
23671;DHT22;12012;51.998;7.614;2023-05-24T04:01:40;7.20;1.00
23671;DHT22;12012;51.998;7.614;2023-05-24T04:04:05;7.20;1.00
23671;DHT22;12012;51.998;7.614;2023-05-24T04:06:31;7.30;1.00
23671;DHT22;12012;51.998;7.614;2023-05-24T04:08:57;7.30;99.90
23671;DHT22;12012;51.998;7.614;2023-05-24T04:11:23;7.30;52.20
23671;DHT22;12012;51.998;7.614;2023-05-24T04:13:52;7.30;58.40
23671;DHT22;12012;51.998;7.614;2023-05-24T04:16:20;7.40;99.90
23671;DHT22;12012;51.998;7.614;2023-05-24T04:18:49;7.40;99.90
23671;DHT22;12012;51.998;7.614;2023-05-24T04:21:15;7.50;99.90
23671;DHT22;12012;51.998;7.614;2023-05-24T04:23:40;7.50;99.90
23671;DHT22;12012;51.998;7.614;2023-05-24T04:26:06;7.60;99.90
23671;DHT22;12012;51.998;7.614;2023-05-24T04:28:32;7.60;1.00
23671;DHT22;12012;51.998;7.614;2023-05-24T04:30:58;7.60;99.90
23671;DHT22;12012;51.998;7.614;2023-05-24T04:33:23;7.70;64.70
23671;DHT22;12012;51.998;7.614;2023-05-24T04:35:49;7.70;99.90
23671;DHT22;12012;51.998;7.614;2023-05-24T04:38:15;7.80;63.60
23671;DHT22;12012;51.998;7.614;2023-05-24T04:40:40;7.80;99.90
23671;DHT22;12012;51.998;7.614;2023-05-24T04:43:06;7.90;91.30
23671;DHT22;12012;51.998;7.614;2023-05-24T04:45:33;8.00;99.90
23671;DHT22;12012;51.998;7.614;2023-05-24T04:47:59;8.10;51.80
23671;DHT22;12012;51.998;7.614;2023-05-24T04:50:24;8.20;99.90
23671;DHT22;12012;51.998;7.614;2023-05-24T04:52:50;8.40;99.70
23671;DHT22;12012;51.998;7.614;2023-05-24T04:55:16;8.50;93.30
23671;DHT22;12012;51.998;7.614;2023-05-24T04:57:41;8.70;99.90
23671;DHT22;12012;51.998;7.614;2023-05-24T05:00:07;8.70;1.00
23671;DHT22;12012;51.998;7.614;2023-05-24T05:02:34;8.80;99.90
23671;DHT22;12012;51.998;7.614;2023-05-24T05:05:00;8.90;99.90
23671;DHT22;12012;51.998;7.614;2023-05-24T05:07:25;8.90;1.00
23671;DHT22;12012;51.998;7.614;2023-05-24T05:09:51;9.00;1.00
23671;DHT22;12012;51.998;7.614;2023-05-24T05:12:17;9.00;99.90
23671;DHT22;12012;51.998;7.614;2023-05-24T05:14:42;9.00;1.00
23671;DHT22;12012;51.998;7.614;2023-05-24T05:17:08;9.10;99.90
23671;DHT22;12012;51.998;7.614;2023-05-24T05:19:33;9.10;35.00
23671;DHT22;12012;51.998;7.614;2023-05-24T05:22:00;9.20;1.00
23671;DHT22;12012;51.998;7.614;2023-05-24T05:24:26;9.20;99.90
23671;DHT22;12012;51.998;7.614;2023-05-24T05:26:51;9.30;99.90
23671;DHT22;12012;51.998;7.614;2023-05-24T05:29:17;9.40;1.00
23671;DHT22;12012;51.998;7.614;2023-05-24T05:31:43;9.50;99.90
23671;DHT22;12012;51.998;7.614;2023-05-24T05:34:08;9.70;99.90
23671;DHT22;12012;51.998;7.614;2023-05-24T05:36:36;9.80;99.90
23671;DHT22;12012;51.998;7.614;2023-05-24T05:39:08;9.90;99.90
23671;DHT22;12012;51.998;7.614;2023-05-24T05:41:40;10.10;1.00
23671;DHT22;12012;51.998;7.614;2023-05-24T05:44:09;10.20;1.00
23671;DHT22;12012;51.998;7.614;2023-05-24T05:46:35;10.40;99.90
23671;DHT22;12012;51.998;7.614;2023-05-24T05:55:44;10.70;99.90
23671;DHT22;12012;51.998;7.614;2023-05-24T05:58:10;10.80;99.90
23671;DHT22;12012;51.998;7.614;2023-05-24T06:00:37;10.90;99.90
23671;DHT22;12012;51.998;7.614;2023-05-24T06:03:03;11.00;99.90
23671;DHT22;12012;51.998;7.614;2023-05-24T06:05:28;11.10;1.00
23671;DHT22;12012;51.998;7.614;2023-05-24T06:07:54;11.10;1.00
23671;DHT22;12012;51.998;7.614;2023-05-24T06:10:19;11.20;1.00
23671;DHT22;12012;51.998;7.614;2023-05-24T06:12:45;11.20;99.90
23671;DHT22;12012;51.998;7.614;2023-05-24T06:15:11;11.30;99.90
23671;DHT22;12012;51.998;7.614;2023-05-24T06:17:36;11.40;99.90
23671;DHT22;12012;51.998;7.614;2023-05-24T06:20:05;11.50;99.90
23671;DHT22;12012;51.998;7.614;2023-05-24T06:22:36;11.50;99.90
23671;DHT22;12012;51.998;7.614;2023-05-24T06:25:03;11.60;99.90
23671;DHT22;12012;51.998;7.614;2023-05-24T06:27:29;11.70;99.90
23671;DHT22;12012;51.998;7.614;2023-05-24T06:29:55;11.90;99.90
23671;DHT22;12012;51.998;7.614;2023-05-24T06:32:20;11.90;64.10
23671;DHT22;12012;51.998;7.614;2023-05-24T06:34:46;12.00;6.40
23671;DHT22;12012;51.998;7.614;2023-05-24T06:37:11;12.10;1.00
23671;DHT22;12012;51.998;7.614;2023-05-24T06:39:39;12.20;1.00
23671;DHT22;12012;51.998;7.614;2023-05-24T06:42:05;12.30;1.00
23671;DHT22;12012;51.998;7.614;2023-05-24T06:44:30;12.40;1.00
23671;DHT22;12012;51.998;7.614;2023-05-24T06:46:59;12.40;99.90
23671;DHT22;12012;51.998;7.614;2023-05-24T06:49:25;12.50;99.90
23671;DHT22;12012;51.998;7.614;2023-05-24T06:51:51;12.50;99.90
23671;DHT22;12012;51.998;7.614;2023-05-24T06:54:17;12.60;99.90
23671;DHT22;12012;51.998;7.614;2023-05-24T06:56:43;12.70;99.90
23671;DHT22;12012;51.998;7.614;2023-05-24T06:59:08;12.80;99.90
23671;DHT22;12012;51.998;7.614;2023-05-24T07:01:35;12.80;99.90
23671;DHT22;12012;51.998;7.614;2023-05-24T07:04:07;12.80;99.90
23671;DHT22;12012;51.998;7.614;2023-05-24T07:06:32;12.90;99.90
23671;DHT22;12012;51.998;7.614;2023-05-24T07:08:58;12.90;99.90
23671;DHT22;12012;51.998;7.614;2023-05-24T07:11:26;12.90;99.90
23671;DHT22;12012;51.998;7.614;2023-05-24T07:13:52;13.00;99.90
23671;DHT22;12012;51.998;7.614;2023-05-24T07:16:17;13.10;89.60
23671;DHT22;12012;51.998;7.614;2023-05-24T07:18:43;13.20;37.70
23671;DHT22;12012;51.998;7.614;2023-05-24T07:21:08;13.30;1.00
23671;DHT22;12012;51.998;7.614;2023-05-24T07:23:34;13.30;1.00
23671;DHT22;12012;51.998;7.614;2023-05-24T07:26:01;13.30;1.00
23671;DHT22;12012;51.998;7.614;2023-05-24T07:28:27;13.30;1.00
23671;DHT22;12012;51.998;7.614;2023-05-24T07:30:52;13.40;1.00
23671;DHT22;12012;51.998;7.614;2023-05-24T07:33:18;13.50;1.00
23671;DHT22;12012;51.998;7.614;2023-05-24T07:35:43;13.60;1.00
23671;DHT22;12012;51.998;7.614;2023-05-24T07:38:15;13.80;99.90
23671;DHT22;12012;51.998;7.614;2023-05-24T07:40:41;14.00;99.90
23671;DHT22;12012;51.998;7.614;2023-05-24T07:43:07;14.10;99.90
23671;DHT22;12012;51.998;7.614;2023-05-24T07:45:32;14.30;99.90
23671;DHT22;12012;51.998;7.614;2023-05-24T07:47:58;14.40;99.90
23671;DHT22;12012;51.998;7.614;2023-05-24T07:50:24;14.30;99.90
23671;DHT22;12012;51.998;7.614;2023-05-24T07:52:50;14.30;99.90
23671;DHT22;12012;51.998;7.614;2023-05-24T07:55:16;14.20;99.90
23671;DHT22;12012;51.998;7.614;2023-05-24T07:57:41;14.20;99.90
23671;DHT22;12012;51.998;7.614;2023-05-24T08:00:07;14.20;99.90
23671;DHT22;12012;51.998;7.614;2023-05-24T08:02:39;14.40;99.90
23671;DHT22;12012;51.998;7.614;2023-05-24T08:05:05;14.50;99.90
23671;DHT22;12012;51.998;7.614;2023-05-24T08:07:34;14.40;99.90
23671;DHT22;12012;51.998;7.614;2023-05-24T08:10:00;14.30;99.90
23671;DHT22;12012;51.998;7.614;2023-05-24T08:12:25;14.30;99.90
23671;DHT22;12012;51.998;7.614;2023-05-24T08:14:54;14.30;99.90
23671;DHT22;12012;51.998;7.614;2023-05-24T08:17:20;14.30;99.90
23671;DHT22;12012;51.998;7.614;2023-05-24T08:19:46;14.40;99.90
23671;DHT22;12012;51.998;7.614;2023-05-24T08:22:12;14.40;99.90
23671;DHT22;12012;51.998;7.614;2023-05-24T08:24:38;14.40;99.90
23671;DHT22;12012;51.998;7.614;2023-05-24T08:27:04;14.50;99.90
23671;DHT22;12012;51.998;7.614;2023-05-24T08:29:29;14.60;99.90
23671;DHT22;12012;51.998;7.614;2023-05-24T08:31:55;14.60;99.90
23671;DHT22;12012;51.998;7.614;2023-05-24T08:34:20;14.70;99.90
23671;DHT22;12012;51.998;7.614;2023-05-24T08:36:46;14.70;99.90
23671;DHT22;12012;51.998;7.614;2023-05-24T08:39:12;14.70;99.90
23671;DHT22;12012;51.998;7.614;2023-05-24T08:41:37;14.70;99.90
23671;DHT22;12012;51.998;7.614;2023-05-24T08:44:06;14.80;99.90
23671;DHT22;12012;51.998;7.614;2023-05-24T08:46:36;14.90;99.90
23671;DHT22;12012;51.998;7.614;2023-05-24T08:49:03;15.00;99.90
23671;DHT22;12012;51.998;7.614;2023-05-24T08:51:29;15.00;99.90
23671;DHT22;12012;51.998;7.614;2023-05-24T08:53:57;15.10;99.90
23671;DHT22;12012;51.998;7.614;2023-05-24T08:56:24;15.10;99.90
23671;DHT22;12012;51.998;7.614;2023-05-24T08:58:50;15.00;95.30
23671;DHT22;12012;51.998;7.614;2023-05-24T09:01:16;15.00;95.40
23671;DHT22;12012;51.998;7.614;2023-05-24T09:03:43;15.00;94.90
23671;DHT22;12012;51.998;7.614;2023-05-24T09:06:12;15.10;94.70
23671;DHT22;12012;51.998;7.614;2023-05-24T09:08:38;15.30;95.50
23671;DHT22;12012;51.998;7.614;2023-05-24T09:11:06;15.50;91.90
23671;DHT22;12012;51.998;7.614;2023-05-24T09:13:32;15.90;89.20
23671;DHT22;12012;51.998;7.614;2023-05-24T09:15:59;16.60;86.30
23671;DHT22;12012;51.998;7.614;2023-05-24T09:18:25;17.10;70.00
23671;DHT22;12012;51.998;7.614;2023-05-24T09:20:51;17.40;52.00
23671;DHT22;12012;51.998;7.614;2023-05-24T09:23:17;17.30;30.50
23671;DHT22;12012;51.998;7.614;2023-05-24T09:25:46;16.90;11.30
23671;DHT22;12012;51.998;7.614;2023-05-24T09:28:14;16.60;1.80
23671;DHT22;12012;51.998;7.614;2023-05-24T09:30:45;16.40;1.00
23671;DHT22;12012;51.998;7.614;2023-05-24T09:33:11;16.20;1.00
23671;DHT22;12012;51.998;7.614;2023-05-24T09:35:41;16.20;1.00
23671;DHT22;12012;51.998;7.614;2023-05-24T09:38:15;16.20;1.00
23671;DHT22;12012;51.998;7.614;2023-05-24T09:40:42;16.10;1.00
23671;DHT22;12012;51.998;7.614;2023-05-24T09:43:09;16.10;1.00
23671;DHT22;12012;51.998;7.614;2023-05-24T09:45:42;16.10;1.00
23671;DHT22;12012;51.998;7.614;2023-05-24T09:48:11;16.10;1.00
23671;DHT22;12012;51.998;7.614;2023-05-24T09:50:37;16.10;1.00
23671;DHT22;12012;51.998;7.614;2023-05-24T09:53:02;16.20;1.00
23671;DHT22;12012;51.998;7.614;2023-05-24T09:55:28;16.30;1.00
23671;DHT22;12012;51.998;7.614;2023-05-24T09:58:05;16.30;1.00
23671;DHT22;12012;51.998;7.614;2023-05-24T10:00:33;16.30;1.00
23671;DHT22;12012;51.998;7.614;2023-05-24T10:03:05;16.30;1.00
23671;DHT22;12012;51.998;7.614;2023-05-24T10:05:35;16.30;1.00
23671;DHT22;12012;51.998;7.614;2023-05-24T10:08:02;16.40;1.00
23671;DHT22;12012;51.998;7.614;2023-05-24T10:10:30;16.50;1.00
23671;DHT22;12012;51.998;7.614;2023-05-24T10:12:57;16.60;1.00
23671;DHT22;12012;51.998;7.614;2023-05-24T10:15:23;16.90;1.00
23671;DHT22;12012;51.998;7.614;2023-05-24T10:17:53;17.30;1.00
23671;DHT22;12012;51.998;7.614;2023-05-24T10:20:19;17.80;1.00
23671;DHT22;12012;51.998;7.614;2023-05-24T10:22:47;18.10;1.00
23671;DHT22;12012;51.998;7.614;2023-05-24T10:25:27;18.30;1.00
23671;DHT22;12012;51.998;7.614;2023-05-24T10:28:02;18.40;1.00
23671;DHT22;12012;51.998;7.614;2023-05-24T10:33:13;18.10;1.00
23671;DHT22;12012;51.998;7.614;2023-05-24T10:35:40;17.90;1.00
23671;DHT22;12012;51.998;7.614;2023-05-24T10:38:07;17.60;1.00
23671;DHT22;12012;51.998;7.614;2023-05-24T10:40:33;17.20;1.00
23671;DHT22;12012;51.998;7.614;2023-05-24T10:43:03;16.90;1.00
23671;DHT22;12012;51.998;7.614;2023-05-24T10:45:33;16.70;1.00
23671;DHT22;12012;51.998;7.614;2023-05-24T10:50:40;16.40;1.00
23671;DHT22;12012;51.998;7.614;2023-05-24T10:53:16;16.50;1.00
23671;DHT22;12012;51.998;7.614;2023-05-24T10:56:01;16.60;1.00
23671;DHT22;12012;51.998;7.614;2023-05-24T11:00:59;16.80;1.00
23671;DHT22;12012;51.998;7.614;2023-05-24T11:03:32;16.80;1.00
23671;DHT22;12012;51.998;7.614;2023-05-24T11:05:57;16.80;1.00
23671;DHT22;12012;51.998;7.614;2023-05-24T11:08:31;16.90;1.00
23671;DHT22;12012;51.998;7.614;2023-05-24T11:11:13;16.90;1.00
23671;DHT22;12012;51.998;7.614;2023-05-24T11:13:46;16.90;1.00
23671;DHT22;12012;51.998;7.614;2023-05-24T11:16:32;16.90;1.00
23671;DHT22;12012;51.998;7.614;2023-05-24T11:19:17;16.90;1.00
23671;DHT22;12012;51.998;7.614;2023-05-24T11:21:47;16.90;1.00
23671;DHT22;12012;51.998;7.614;2023-05-24T11:24:15;17.00;1.00
23671;DHT22;12012;51.998;7.614;2023-05-24T11:26:42;17.00;1.00
23671;DHT22;12012;51.998;7.614;2023-05-24T11:29:09;17.20;1.00
23671;DHT22;12012;51.998;7.614;2023-05-24T11:31:34;17.50;1.00
23671;DHT22;12012;51.998;7.614;2023-05-24T11:34:09;18.00;1.00
23671;DHT22;12012;51.998;7.614;2023-05-24T11:36:34;18.60;1.00
23671;DHT22;12012;51.998;7.614;2023-05-24T11:39:01;19.10;1.00
23671;DHT22;12012;51.998;7.614;2023-05-24T11:41:27;19.30;1.00
23671;DHT22;12012;51.998;7.614;2023-05-24T11:43:53;19.30;1.00
23671;DHT22;12012;51.998;7.614;2023-05-24T11:46:19;19.20;1.00
23671;DHT22;12012;51.998;7.614;2023-05-24T11:48:57;19.10;1.00
23671;DHT22;12012;51.998;7.614;2023-05-24T11:51:32;19.00;1.00
23671;DHT22;12012;51.998;7.614;2023-05-24T11:53:58;18.90;1.00
23671;DHT22;12012;51.998;7.614;2023-05-24T11:56:25;18.80;1.00
23671;DHT22;12012;51.998;7.614;2023-05-24T11:59:02;18.50;1.00
23671;DHT22;12012;51.998;7.614;2023-05-24T12:01:31;18.20;1.00
23671;DHT22;12012;51.998;7.614;2023-05-24T12:03:56;18.00;1.00
23671;DHT22;12012;51.998;7.614;2023-05-24T12:06:22;17.80;1.00
23671;DHT22;12012;51.998;7.614;2023-05-24T12:08:48;17.50;1.00
23671;DHT22;12012;51.998;7.614;2023-05-24T12:11:15;17.10;1.00
23671;DHT22;12012;51.998;7.614;2023-05-24T12:13:40;16.90;1.00
23671;DHT22;12012;51.998;7.614;2023-05-24T12:16:06;16.60;1.00
23671;DHT22;12012;51.998;7.614;2023-05-24T12:18:32;16.30;1.00
23671;DHT22;12012;51.998;7.614;2023-05-24T12:20:58;16.20;1.00
23671;DHT22;12012;51.998;7.614;2023-05-24T12:23:25;16.00;1.00
23671;DHT22;12012;51.998;7.614;2023-05-24T12:25:59;15.80;1.00
23671;DHT22;12012;51.998;7.614;2023-05-24T12:28:25;15.70;1.00
23671;DHT22;12012;51.998;7.614;2023-05-24T12:30:51;15.60;1.00
23671;DHT22;12012;51.998;7.614;2023-05-24T12:33:19;15.60;1.00
23671;DHT22;12012;51.998;7.614;2023-05-24T12:35:48;15.60;1.00
23671;DHT22;12012;51.998;7.614;2023-05-24T12:38:14;15.60;1.00
23671;DHT22;12012;51.998;7.614;2023-05-24T12:40:44;15.60;1.00
23671;DHT22;12012;51.998;7.614;2023-05-24T12:43:11;15.60;1.00
23671;DHT22;12012;51.998;7.614;2023-05-24T12:45:39;15.70;1.00
23671;DHT22;12012;51.998;7.614;2023-05-24T12:48:04;15.70;1.00
23671;DHT22;12012;51.998;7.614;2023-05-24T12:50:30;15.80;1.00
23671;DHT22;12012;51.998;7.614;2023-05-24T12:52:56;15.90;1.00
23671;DHT22;12012;51.998;7.614;2023-05-24T12:55:23;16.00;1.00
23671;DHT22;12012;51.998;7.614;2023-05-24T12:57:53;16.20;1.00
23671;DHT22;12012;51.998;7.614;2023-05-24T13:00:20;16.40;1.00
23671;DHT22;12012;51.998;7.614;2023-05-24T13:02:45;16.70;1.00
23671;DHT22;12012;51.998;7.614;2023-05-24T13:05:11;17.00;1.00
23671;DHT22;12012;51.998;7.614;2023-05-24T13:07:37;17.20;1.00
23671;DHT22;12012;51.998;7.614;2023-05-24T13:10:04;17.40;1.00
23671;DHT22;12012;51.998;7.614;2023-05-24T13:12:31;17.60;1.00
23671;DHT22;12012;51.998;7.614;2023-05-24T13:14:56;17.70;1.00
23671;DHT22;12012;51.998;7.614;2023-05-24T13:17:22;17.70;1.00
23671;DHT22;12012;51.998;7.614;2023-05-24T13:19:47;17.80;1.00
23671;DHT22;12012;51.998;7.614;2023-05-24T13:22:14;17.70;1.00
23671;DHT22;12012;51.998;7.614;2023-05-24T13:24:39;17.70;1.00
23671;DHT22;12012;51.998;7.614;2023-05-24T13:27:06;17.80;1.00
23671;DHT22;12012;51.998;7.614;2023-05-24T13:29:32;17.70;1.00
23671;DHT22;12012;51.998;7.614;2023-05-24T13:31:57;17.70;1.00
23671;DHT22;12012;51.998;7.614;2023-05-24T13:34:23;17.70;1.00
23671;DHT22;12012;51.998;7.614;2023-05-24T13:36:50;17.80;1.00
23671;DHT22;12012;51.998;7.614;2023-05-24T13:39:16;17.80;1.00
23671;DHT22;12012;51.998;7.614;2023-05-24T13:41:43;17.70;1.00
23671;DHT22;12012;51.998;7.614;2023-05-24T13:44:08;17.60;1.00
23671;DHT22;12012;51.998;7.614;2023-05-24T13:46:34;17.40;1.00
23671;DHT22;12012;51.998;7.614;2023-05-24T13:49:00;17.30;1.00
23671;DHT22;12012;51.998;7.614;2023-05-24T13:51:26;17.00;1.00
23671;DHT22;12012;51.998;7.614;2023-05-24T13:53:51;16.90;1.00
23671;DHT22;12012;51.998;7.614;2023-05-24T13:56:17;16.80;1.00
23671;DHT22;12012;51.998;7.614;2023-05-24T13:58:43;16.80;1.00
23671;DHT22;12012;51.998;7.614;2023-05-24T14:01:09;16.80;1.00
23671;DHT22;12012;51.998;7.614;2023-05-24T14:03:35;16.80;1.00
23671;DHT22;12012;51.998;7.614;2023-05-24T14:06:01;17.00;1.00
23671;DHT22;12012;51.998;7.614;2023-05-24T14:08:26;17.50;1.00
23671;DHT22;12012;51.998;7.614;2023-05-24T14:10:52;18.30;1.00
23671;DHT22;12012;51.998;7.614;2023-05-24T14:13:18;19.20;1.00
23671;DHT22;12012;51.998;7.614;2023-05-24T14:15:44;19.70;1.00
23671;DHT22;12012;51.998;7.614;2023-05-24T14:18:11;20.00;1.00
23671;DHT22;12012;51.998;7.614;2023-05-24T14:20:37;20.00;1.00
23671;DHT22;12012;51.998;7.614;2023-05-24T14:23:05;20.00;1.00
23671;DHT22;12012;51.998;7.614;2023-05-24T14:25:31;19.90;1.00
23671;DHT22;12012;51.998;7.614;2023-05-24T14:27:57;19.80;1.00
23671;DHT22;12012;51.998;7.614;2023-05-24T14:30:23;19.70;1.00
23671;DHT22;12012;51.998;7.614;2023-05-24T14:32:48;19.60;1.00
23671;DHT22;12012;51.998;7.614;2023-05-24T14:35:14;19.40;1.00
23671;DHT22;12012;51.998;7.614;2023-05-24T14:37:40;19.50;1.00
23671;DHT22;12012;51.998;7.614;2023-05-24T14:40:06;19.50;1.00
23671;DHT22;12012;51.998;7.614;2023-05-24T14:42:31;19.50;1.00
23671;DHT22;12012;51.998;7.614;2023-05-24T14:44:57;19.50;1.00
23671;DHT22;12012;51.998;7.614;2023-05-24T14:47:23;19.30;1.00
23671;DHT22;12012;51.998;7.614;2023-05-24T14:49:48;19.20;1.00
23671;DHT22;12012;51.998;7.614;2023-05-24T14:52:14;19.10;1.00
23671;DHT22;12012;51.998;7.614;2023-05-24T14:54:40;19.00;1.00
23671;DHT22;12012;51.998;7.614;2023-05-24T14:57:06;19.00;1.00
23671;DHT22;12012;51.998;7.614;2023-05-24T14:59:34;18.90;1.00
23671;DHT22;12012;51.998;7.614;2023-05-24T15:02:00;18.90;1.00
23671;DHT22;12012;51.998;7.614;2023-05-24T15:04:25;18.80;1.00
23671;DHT22;12012;51.998;7.614;2023-05-24T15:06:52;18.70;1.00
23671;DHT22;12012;51.998;7.614;2023-05-24T15:09:17;18.90;1.00
23671;DHT22;12012;51.998;7.614;2023-05-24T15:11:43;19.20;1.00
23671;DHT22;12012;51.998;7.614;2023-05-24T15:14:09;19.30;1.00
23671;DHT22;12012;51.998;7.614;2023-05-24T15:16:34;19.40;1.00
23671;DHT22;12012;51.998;7.614;2023-05-24T15:19:00;19.40;1.00
23671;DHT22;12012;51.998;7.614;2023-05-24T15:21:26;19.30;1.00
23671;DHT22;12012;51.998;7.614;2023-05-24T15:23:52;19.30;1.00
23671;DHT22;12012;51.998;7.614;2023-05-24T15:26:18;19.20;1.00
23671;DHT22;12012;51.998;7.614;2023-05-24T15:28:43;19.20;1.00
23671;DHT22;12012;51.998;7.614;2023-05-24T15:31:09;19.40;1.00
23671;DHT22;12012;51.998;7.614;2023-05-24T15:33:35;19.60;1.00
23671;DHT22;12012;51.998;7.614;2023-05-24T15:36:02;19.70;1.00
23671;DHT22;12012;51.998;7.614;2023-05-24T15:38:28;19.70;1.00
23671;DHT22;12012;51.998;7.614;2023-05-24T15:40:53;19.70;1.00
23671;DHT22;12012;51.998;7.614;2023-05-24T15:43:19;19.60;1.00
23671;DHT22;12012;51.998;7.614;2023-05-24T15:45:45;19.70;1.00
23671;DHT22;12012;51.998;7.614;2023-05-24T15:48:11;19.80;1.00
23671;DHT22;12012;51.998;7.614;2023-05-24T15:50:37;19.90;1.00
23671;DHT22;12012;51.998;7.614;2023-05-24T15:53:04;19.90;1.00
23671;DHT22;12012;51.998;7.614;2023-05-24T15:55:30;19.90;1.00
23671;DHT22;12012;51.998;7.614;2023-05-24T15:57:56;19.80;1.00
23671;DHT22;12012;51.998;7.614;2023-05-24T16:00:22;19.60;1.00
23671;DHT22;12012;51.998;7.614;2023-05-24T16:02:48;19.40;1.00
23671;DHT22;12012;51.998;7.614;2023-05-24T16:05:14;19.10;1.00